createdAt,value
2019-05-06T00:00:27.077Z,5.94
2019-05-06T00:01:39.198Z,5.86
2019-05-06T00:02:54.416Z,5.93
2019-05-06T00:04:07.503Z,5.84
2019-05-06T00:05:19.462Z,5.82
2019-05-06T00:06:30.947Z,5.83
2019-05-06T00:07:44.090Z,5.75
2019-05-06T00:08:56.950Z,5.72
2019-05-06T00:10:10.742Z,5.68
2019-05-06T00:11:21.270Z,5.71
2019-05-06T00:12:33.491Z,5.67
2019-05-06T00:13:44.505Z,5.59
2019-05-06T00:14:56.599Z,5.62
2019-05-06T00:17:53.840Z,5.47
2019-05-06T00:19:04.750Z,5.44
2019-05-06T00:21:31.299Z,5.41
2019-05-06T00:22:43.609Z,5.41
2019-05-06T00:23:54.547Z,5.33
2019-05-06T00:26:19.990Z,5.28
2019-05-06T00:27:34.265Z,5.29
2019-05-06T00:28:44.686Z,5.35
2019-05-06T00:29:57.337Z,5.24
2019-05-06T00:31:19.081Z,5.28
2019-05-06T00:32:31.694Z,5.18
2019-05-06T00:33:44.374Z,5.24
2019-05-06T00:34:57.009Z,5.18
2019-05-06T00:36:07.025Z,5.22
2019-05-06T00:37:19.611Z,5.22
2019-05-06T00:38:33.469Z,5.24
2019-05-06T00:39:44.454Z,5.21
2019-05-06T00:40:56.946Z,5.22
2019-05-06T00:42:10.339Z,5.13
2019-05-06T00:43:23.562Z,5.16
2019-05-06T00:44:34.609Z,5.1
2019-05-06T00:45:46.737Z,5.18
2019-05-06T00:46:59.513Z,5.11
2019-05-06T00:48:13.939Z,5.08
2019-05-06T00:49:26.285Z,5.04
2019-05-06T00:50:37.345Z,5.08
2019-05-06T00:51:49.510Z,5.06
2019-05-06T00:53:00.466Z,5.06
2019-05-06T00:54:14.237Z,5
2019-05-06T00:55:26.545Z,5.03
2019-05-06T00:56:39.227Z,5
2019-05-06T00:57:50.165Z,5.06
2019-05-06T00:59:03.653Z,4.99
2019-05-06T01:00:15.967Z,4.96
2019-05-06T01:01:34.424Z,4.89
2019-05-06T01:02:46.400Z,4.98
2019-05-06T01:03:58.512Z,4.88
2019-05-06T01:05:09.976Z,4.83
2019-05-06T01:07:48.827Z,4.81
2019-05-06T01:09:00.346Z,4.7
2019-05-06T01:10:14.245Z,4.74
2019-05-06T01:11:26.315Z,4.77
2019-05-06T01:12:37.095Z,4.73
2019-05-06T01:13:48.893Z,4.74
2019-05-06T01:14:59.929Z,4.62
2019-05-06T01:16:11.753Z,4.55
2019-05-06T01:17:24.315Z,4.71
2019-05-06T01:18:36.385Z,4.55
2019-05-06T01:19:50.733Z,4.56
2019-05-06T01:21:03.636Z,4.5
2019-05-06T01:22:14.072Z,4.53
2019-05-06T01:23:25.913Z,4.5
2019-05-06T01:24:36.976Z,4.52
2019-05-06T01:25:49.240Z,4.57
2019-05-06T01:26:59.963Z,4.56
2019-05-06T01:28:13.610Z,4.55
2019-05-06T01:29:24.215Z,4.55
2019-05-06T01:30:36.172Z,4.46
2019-05-06T01:31:50.242Z,4.4
2019-05-06T01:33:03.910Z,4.43
2019-05-06T01:34:13.910Z,4.41
2019-05-06T01:35:24.629Z,4.41
2019-05-06T01:36:36.888Z,4.37
2019-05-06T01:37:48.842Z,4.41
2019-05-06T01:38:59.966Z,4.36
2019-05-06T01:40:13.853Z,4.37
2019-05-06T01:41:26.784Z,4.31
2019-05-06T01:42:39.495Z,4.37
2019-05-06T01:43:50.082Z,4.31
2019-05-06T01:45:04.528Z,4.25
2019-05-06T01:46:16.475Z,4.2
2019-05-06T01:47:28.613Z,4.2
2019-05-06T01:48:39.967Z,4.23
2019-05-06T01:49:53.712Z,4.16
2019-05-06T01:51:05.920Z,4.05
2019-05-06T01:52:17.169Z,4.05
2019-05-06T01:53:29.363Z,4.12
2019-05-06T01:54:42.980Z,3.98
2019-05-06T01:55:54.555Z,4.03
2019-05-06T01:57:06.840Z,3.97
2019-05-06T01:58:19.131Z,3.97
2019-05-06T01:59:29.698Z,3.98
2019-05-06T02:00:46.168Z,3.94
2019-05-06T02:02:06.800Z,3.91
2019-05-06T02:03:17.271Z,3.95
2019-05-06T02:04:29.548Z,3.94
2019-05-06T02:05:41.563Z,3.86
2019-05-06T02:06:54.337Z,3.87
2019-05-06T02:08:06.444Z,3.86
2019-05-06T02:09:18.825Z,3.85
2019-05-06T02:10:30.304Z,3.85
2019-05-06T02:11:44.177Z,3.79
2019-05-06T02:12:56.618Z,3.73
2019-05-06T02:14:09.787Z,3.76
2019-05-06T02:15:23.446Z,3.69
2019-05-06T02:16:34.375Z,3.67
2019-05-06T02:17:46.623Z,3.67
2019-05-06T02:18:58.815Z,3.68
2019-05-06T02:20:09.609Z,3.67
2019-05-06T02:21:24.351Z,3.62
2019-05-06T02:22:37.080Z,3.59
2019-05-06T02:23:49.587Z,3.73
2019-05-06T02:25:01.346Z,3.77
2019-05-06T02:26:14.128Z,3.64
2019-05-06T02:27:24.855Z,3.58
2019-05-06T02:28:36.920Z,3.61
2019-05-06T02:29:48.871Z,3.55
2019-05-06T02:30:59.929Z,3.58
2019-05-06T02:32:35.846Z,3.58
2019-05-06T02:33:47.236Z,3.52
2019-05-06T02:34:59.577Z,3.5
2019-05-06T02:36:14.855Z,3.47
2019-05-06T02:37:27.916Z,3.54
2019-05-06T02:38:56.992Z,3.58
2019-05-06T02:40:09.390Z,3.49
2019-05-06T02:41:23.219Z,3.58
2019-05-06T02:42:36.182Z,3.55
2019-05-06T02:43:48.589Z,3.57
2019-05-06T02:45:03.873Z,3.61
2019-05-06T02:46:15.514Z,3.62
2019-05-06T02:47:27.984Z,3.55
2019-05-06T02:48:42.901Z,3.54
2019-05-06T02:49:55.983Z,3.58
2019-05-06T02:51:09.630Z,3.5
2019-05-06T02:52:22.832Z,3.5
2019-05-06T02:53:35.914Z,3.61
2019-05-06T02:54:48.425Z,3.62
2019-05-06T02:56:03.977Z,3.61
2019-05-06T02:57:15.713Z,3.54
2019-05-06T02:58:28.492Z,3.49
2019-05-06T02:59:43.901Z,3.57
2019-05-06T03:00:56.447Z,3.57
2019-05-06T03:02:09.147Z,3.58
2019-05-06T03:03:43.529Z,3.54
2019-05-06T03:04:55.454Z,3.58
2019-05-06T03:06:09.670Z,3.52
2019-05-06T03:07:23.282Z,3.61
2019-05-06T03:08:35.389Z,3.59
2019-05-06T03:09:52.894Z,3.57
2019-05-06T03:11:06.293Z,3.59
2019-05-06T03:12:19.073Z,3.69
2019-05-06T03:13:33.522Z,3.62
2019-05-06T03:14:46.157Z,3.73
2019-05-06T03:15:59.431Z,3.75
2019-05-06T03:17:16.364Z,3.67
2019-05-06T03:18:28.992Z,3.68
2019-05-06T03:19:45.488Z,3.64
2019-05-06T03:20:58.428Z,3.54
2019-05-06T03:22:13.286Z,3.54
2019-05-06T03:23:26.278Z,3.61
2019-05-06T03:24:40.001Z,3.58
2019-05-06T03:25:53.181Z,3.57
2019-05-06T03:27:07.206Z,3.52
2019-05-06T03:28:22.344Z,3.5
2019-05-06T03:29:35.758Z,3.52
2019-05-06T03:30:55.799Z,3.47
2019-05-06T03:32:30.117Z,3.5
